createdAt,value
2022-08-16T00:01:24.396Z,20.51
2022-08-16T00:03:53.760Z,20.49
2022-08-16T00:06:22.496Z,20.47
2022-08-16T00:08:50.151Z,20.44
2022-08-16T00:11:21.590Z,20.43
2022-08-16T00:13:53.587Z,20.37
2022-08-16T00:17:00.528Z,20.34
2022-08-16T00:19:22.607Z,20.28
2022-08-16T00:21:55.206Z,20.26
2022-08-16T00:24:32.706Z,20.25
2022-08-16T00:27:03.876Z,20.24
2022-08-16T00:29:32.812Z,20.25
2022-08-16T00:32:05.950Z,20.22
2022-08-16T00:34:43.687Z,20.23
2022-08-16T00:37:17.116Z,20.25
2022-08-16T00:39:56.938Z,20.27
2022-08-16T00:42:31.709Z,20.29
2022-08-16T00:45:25.157Z,20.31
2022-08-16T00:47:54.711Z,20.33
2022-08-16T00:50:36.561Z,20.34
2022-08-16T00:53:08.148Z,20.38
2022-08-16T00:55:41.940Z,20.39
2022-08-16T00:58:12.769Z,20.38
2022-08-16T01:00:54.368Z,20.38
2022-08-16T01:03:30.201Z,20.34
2022-08-16T01:05:58.220Z,20.37
2022-08-16T01:08:36.547Z,20.36
2022-08-16T01:11:06.560Z,20.38
2022-08-16T01:13:37.587Z,20.38
2022-08-16T01:16:35.474Z,20.38
2022-08-16T01:19:23.505Z,20.35
2022-08-16T01:22:58.861Z,20.27
2022-08-16T01:24:57.124Z,20.20
2022-08-16T01:27:35.870Z,20.12
2022-08-16T01:30:19.923Z,20.01
2022-08-16T01:33:01.872Z,19.90
2022-08-16T01:36:12.009Z,19.83
2022-08-16T01:38:47.020Z,19.76
2022-08-16T01:41:26.360Z,19.69
2022-08-16T01:44:01.433Z,19.61
2022-08-16T01:46:44.740Z,19.57
2022-08-16T01:49:43.035Z,19.51
2022-08-16T01:52:28.071Z,19.46
2022-08-16T01:55:35.635Z,19.38
2022-08-16T01:58:05.163Z,19.34
2022-08-16T02:00:34.176Z,19.30
2022-08-16T02:03:02.568Z,19.26
2022-08-16T02:05:30.575Z,19.22
2022-08-16T02:08:00.461Z,19.18
2022-08-16T02:10:28.914Z,19.17
2022-08-16T02:13:00.681Z,19.15
2022-08-16T02:15:35.618Z,19.16
2022-08-16T02:18:12.823Z,19.15
2022-08-16T02:20:46.483Z,19.17
2022-08-16T02:23:17.308Z,19.18
2022-08-16T02:25:52.154Z,19.19
2022-08-16T02:28:26.238Z,19.19
2022-08-16T02:30:58.316Z,19.18
2022-08-16T02:33:44.526Z,19.19
2022-08-16T02:36:48.087Z,19.17
2022-08-16T02:39:11.160Z,19.15
2022-08-16T02:41:42.159Z,19.15
2022-08-16T02:44:13.634Z,19.12
2022-08-16T02:46:50.650Z,19.08
2022-08-16T02:49:22.095Z,19.07
2022-08-16T02:51:59.330Z,19.09
2022-08-16T02:54:29.062Z,19.08
2022-08-16T02:56:56.509Z,19.08
2022-08-16T02:59:24.426Z,19.06
2022-08-16T03:01:51.789Z,19.03
2022-08-16T03:04:39.316Z,18.99
2022-08-16T03:07:14.885Z,18.94
2022-08-16T03:09:45.424Z,18.91
2022-08-16T03:12:16.601Z,18.87
2022-08-16T03:14:47.508Z,18.83
2022-08-16T03:17:17.056Z,18.81
2022-08-16T03:19:48.608Z,18.78
2022-08-16T03:22:28.677Z,18.76
2022-08-16T03:25:04.896Z,18.74
2022-08-16T03:27:41.027Z,18.72
2022-08-16T03:30:24.644Z,18.71
2022-08-16T03:32:56.964Z,18.68
2022-08-16T03:35:32.759Z,18.66
2022-08-16T03:38:34.666Z,18.60
2022-08-16T03:40:56.650Z,18.60
2022-08-16T03:43:51.932Z,18.57
2022-08-16T03:46:44.558Z,18.53
2022-08-16T03:49:05.393Z,18.50
2022-08-16T03:51:34.716Z,18.45
2022-08-16T03:54:12.163Z,18.42
2022-08-16T03:56:57.113Z,18.41
2022-08-16T03:59:29.378Z,18.39
2022-08-16T04:02:01.299Z,18.39
2022-08-16T04:04:33.550Z,18.38
2022-08-16T04:07:07.409Z,18.38
2022-08-16T04:09:38.645Z,18.35
2022-08-16T04:12:52.343Z,18.36
2022-08-16T04:15:02.457Z,18.34
2022-08-16T04:17:32.598Z,18.33
2022-08-16T04:20:24.060Z,18.33
2022-08-16T04:22:56.053Z,18.29
2022-08-16T04:25:24.805Z,18.30
2022-08-16T04:27:56.133Z,18.27
2022-08-16T04:30:30.239Z,18.28
2022-08-16T04:33:02.654Z,18.26
2022-08-16T04:35:35.868Z,18.26
2022-08-16T04:38:10.676Z,18.29
2022-08-16T04:40:50.230Z,18.30
2022-08-16T04:43:18.752Z,18.31
2022-08-16T04:45:47.417Z,18.32
2022-08-16T04:48:32.609Z,18.33
2022-08-16T04:51:07.845Z,18.38
2022-08-16T04:53:43.942Z,18.46
2022-08-16T04:56:11.883Z,18.46
2022-08-16T04:58:45.821Z,18.49
2022-08-16T05:01:15.522Z,18.55
2022-08-16T05:04:00.275Z,18.59
2022-08-16T05:06:42.317Z,18.65
2022-08-16T05:09:38.415Z,18.72
2022-08-16T05:12:06.850Z,18.77
2022-08-16T05:14:45.759Z,18.80
2022-08-16T05:17:18.029Z,18.88
2022-08-16T05:19:46.790Z,18.95
2022-08-16T05:22:28.404Z,19.15
2022-08-16T05:24:57.015Z,19.34
2022-08-16T05:27:24.513Z,19.44
2022-08-16T05:30:00.082Z,19.61
2022-08-16T05:32:36.488Z,20.26
2022-08-16T05:35:16.023Z,22.08
2022-08-16T05:37:58.666Z,23.62
2022-08-16T05:40:26.683Z,24.75
2022-08-16T05:42:55.509Z,25.72
2022-08-16T05:45:24.199Z,26.46
2022-08-16T05:47:59.589Z,27.00
2022-08-16T05:50:34.955Z,26.95
2022-08-16T05:53:03.748Z,25.65
2022-08-16T05:55:35.233Z,24.40
2022-08-16T05:58:08.277Z,23.49
2022-08-16T06:00:37.064Z,22.85
2022-08-16T06:03:04.210Z,22.30
2022-08-16T06:05:51.545Z,21.89
2022-08-16T06:08:31.545Z,21.64
2022-08-16T06:11:09.990Z,21.45
2022-08-16T06:13:41.967Z,21.30
2022-08-16T06:16:18.316Z,21.21
2022-08-16T06:18:47.785Z,21.12
2022-08-16T06:21:22.548Z,21.01
2022-08-16T06:23:54.283Z,20.96
2022-08-16T06:26:24.282Z,20.94
2022-08-16T06:29:05.317Z,20.96
2022-08-16T06:31:49.266Z,20.99
2022-08-16T06:34:55.580Z,21.04
2022-08-16T06:37:13.368Z,21.10
2022-08-16T06:39:49.845Z,21.17
2022-08-16T06:42:30.272Z,21.24
2022-08-16T06:45:29.879Z,21.36
2022-08-16T06:48:06.367Z,21.44
2022-08-16T06:50:35.357Z,21.51
2022-08-16T06:53:08.845Z,21.61
2022-08-16T06:55:47.100Z,21.73
2022-08-16T06:58:31.416Z,21.87
2022-08-16T07:01:09.865Z,22.00
2022-08-16T07:03:54.482Z,22.09
2022-08-16T07:06:26.497Z,22.20
2022-08-16T07:09:00.986Z,22.30
2022-08-16T07:11:47.341Z,22.39
2022-08-16T07:14:25.703Z,22.53
2022-08-16T07:16:58.329Z,22.61
2022-08-16T07:20:01.684Z,22.72
2022-08-16T07:22:38.047Z,22.85
2022-08-16T07:25:15.981Z,22.93
2022-08-16T07:27:44.287Z,23.01
2022-08-16T07:30:39.925Z,23.10
2022-08-16T07:33:07.401Z,23.21
2022-08-16T07:35:44.396Z,23.35
2022-08-16T07:38:19.719Z,23.44
2022-08-16T07:41:00.156Z,23.50
2022-08-16T07:43:29.745Z,23.56
2022-08-16T07:46:01.420Z,23.60
2022-08-16T07:48:30.913Z,23.67
2022-08-16T07:51:00.856Z,23.75
2022-08-16T07:53:34.765Z,23.84
2022-08-16T07:56:11.564Z,23.92
2022-08-16T07:58:40.488Z,24.00
2022-08-16T08:01:15.550Z,24.09
2022-08-16T08:03:58.296Z,24.19
2022-08-16T08:06:33.139Z,24.26
2022-08-16T08:09:07.024Z,24.37
2022-08-16T08:11:34.435Z,24.46
2022-08-16T08:14:06.634Z,24.52
2022-08-16T08:16:39.752Z,24.61
2022-08-16T08:19:17.823Z,24.73
2022-08-16T08:21:59.452Z,24.86
2022-08-16T08:24:48.667Z,24.93
2022-08-16T08:27:22.484Z,24.99
2022-08-16T08:30:49.431Z,25.04
2022-08-16T08:32:51.125Z,25.17
2022-08-16T08:35:27.061Z,25.32
2022-08-16T08:37:56.520Z,25.47
2022-08-16T08:40:29.714Z,25.53
2022-08-16T08:43:12.216Z,25.57
2022-08-16T08:45:52.817Z,25.60
2022-08-16T08:48:33.681Z,25.63
2022-08-16T08:51:09.211Z,25.67
2022-08-16T08:53:43.354Z,25.72
2022-08-16T08:56:22.984Z,25.82
2022-08-16T08:58:58.291Z,25.89
2022-08-16T09:01:43.007Z,26.03
2022-08-16T09:04:24.319Z,26.14
2022-08-16T09:06:53.584Z,26.22
2022-08-16T09:09:23.215Z,26.27
2022-08-16T09:12:04.123Z,26.32
2022-08-16T09:14:49.417Z,26.37
2022-08-16T09:17:47.198Z,26.49
2022-08-16T09:20:14.362Z,26.60
2022-08-16T09:22:44.180Z,26.69
2022-08-16T09:25:25.678Z,26.81
2022-08-16T09:27:58.096Z,26.91
2022-08-16T09:30:36.428Z,27.03
2022-08-16T09:33:18.341Z,27.15
2022-08-16T09:35:53.216Z,27.21
2022-08-16T09:38:32.026Z,27.25
2022-08-16T09:41:02.771Z,27.36
2022-08-16T09:43:59.569Z,27.43
2022-08-16T09:46:44.560Z,27.45
2022-08-16T09:49:05.827Z,27.39
2022-08-16T09:51:37.478Z,27.46
2022-08-16T09:54:09.625Z,27.62
2022-08-16T09:56:39.643Z,27.72
2022-08-16T09:59:25.230Z,27.85
2022-08-16T10:01:54.472Z,27.98
2022-08-16T10:04:29.812Z,28.07
2022-08-16T10:07:15.142Z,28.17
2022-08-16T10:09:55.873Z,28.27
2022-08-16T10:12:55.756Z,28.34
2022-08-16T10:15:25.313Z,28.36
2022-08-16T10:18:00.989Z,28.50
2022-08-16T10:20:35.232Z,28.61
2022-08-16T10:23:17.064Z,28.69
2022-08-16T10:27:19.576Z,28.77
2022-08-16T10:28:39.098Z,28.89
2022-08-16T10:31:14.457Z,28.95
2022-08-16T10:33:45.067Z,28.96
2022-08-16T10:36:39.263Z,29.04
2022-08-16T10:39:01.479Z,29.09
2022-08-16T10:41:29.119Z,29.11
2022-08-16T10:43:56.870Z,29.17
2022-08-16T10:46:40.097Z,29.23
2022-08-16T10:49:12.307Z,29.33
2022-08-16T10:52:01.809Z,29.40
2022-08-16T10:54:29.390Z,29.47
2022-08-16T10:57:01.017Z,29.52
2022-08-16T10:59:46.975Z,29.58
2022-08-16T11:02:57.793Z,29.68
2022-08-16T11:05:16.596Z,29.78
2022-08-16T11:07:52.658Z,29.89
2022-08-16T11:19:12.543Z,30.27
2022-08-16T11:24:41.945Z,30.57
2022-08-16T11:27:20.154Z,30.71
2022-08-16T11:29:52.176Z,30.84
2022-08-16T11:32:32.555Z,30.90
2022-08-16T11:35:10.808Z,30.92
2022-08-16T11:38:06.200Z,30.96
2022-08-16T11:40:52.281Z,31.10
2022-08-16T11:43:24.979Z,31.20
2022-08-16T11:45:57.121Z,31.25
2022-08-16T11:48:27.858Z,31.19
2022-08-16T11:50:56.315Z,31.20
2022-08-16T11:53:24.748Z,31.22
2022-08-16T11:55:55.496Z,31.21
2022-08-16T11:58:26.031Z,31.03
2022-08-16T12:00:57.456Z,30.80
2022-08-16T12:03:35.371Z,30.67
2022-08-16T12:06:30.651Z,30.44
2022-08-16T12:09:01.040Z,30.29
2022-08-16T12:11:31.932Z,30.18
2022-08-16T12:14:04.263Z,30.12
2022-08-16T12:16:36.974Z,30.07
2022-08-16T12:19:10.675Z,30.02
2022-08-16T12:21:58.876Z,29.92
2022-08-16T12:24:28.449Z,29.89
2022-08-16T12:26:57.549Z,29.94
2022-08-16T12:29:29.392Z,30.00
2022-08-16T12:32:01.706Z,29.98
2022-08-16T12:34:50.412Z,29.98
2022-08-16T12:37:21.782Z,30.14
2022-08-16T12:39:56.720Z,30.61
2022-08-16T12:42:35.456Z,31.09
2022-08-16T12:45:12.467Z,31.47
2022-08-16T12:48:29.702Z,31.65
2022-08-16T12:50:49.242Z,31.83
2022-08-16T12:53:20.569Z,31.78
2022-08-16T12:55:49.939Z,31.54
2022-08-16T12:58:48.317Z,31.35
2022-08-16T13:01:09.356Z,31.21
2022-08-16T13:03:40.488Z,31.12
2022-08-16T13:06:08.759Z,31.20
2022-08-16T13:08:36.494Z,31.34
2022-08-16T13:11:07.888Z,31.46
2022-08-16T13:13:36.139Z,31.56
2022-08-16T13:16:15.378Z,31.64
2022-08-16T13:18:52.573Z,31.64
2022-08-16T13:21:23.475Z,31.65
2022-08-16T13:23:55.189Z,31.73
2022-08-16T13:26:26.390Z,31.91
2022-08-16T13:28:54.403Z,31.92
2022-08-16T13:31:21.838Z,31.97
2022-08-16T13:33:51.840Z,32.10
2022-08-16T13:36:38.844Z,32.30
2022-08-16T13:39:09.875Z,32.32
2022-08-16T13:41:37.788Z,32.41
2022-08-16T13:44:09.401Z,32.45
2022-08-16T13:46:37.351Z,32.43
2022-08-16T13:49:05.956Z,32.40
2022-08-16T13:51:33.179Z,32.39
2022-08-16T13:54:04.537Z,32.25
2022-08-16T13:56:39.484Z,32.25
2022-08-16T13:59:19.919Z,32.28
2022-08-16T14:02:02.834Z,32.24
2022-08-16T14:04:34.188Z,32.07
2022-08-16T14:07:05.529Z,32.04
2022-08-16T14:09:36.809Z,31.97
2022-08-16T14:12:21.972Z,31.89
2022-08-16T14:14:54.515Z,31.88
2022-08-16T14:17:25.955Z,31.96
2022-08-16T14:19:54.028Z,31.96
2022-08-16T14:22:39.911Z,32.02
2022-08-16T14:25:19.017Z,32.08
2022-08-16T14:27:46.875Z,32.04
2022-08-16T14:30:19.184Z,32.08
2022-08-16T14:32:50.858Z,31.96
2022-08-16T14:35:36.822Z,31.78
2022-08-16T14:38:18.597Z,31.61
2022-08-16T14:40:52.750Z,31.50
2022-08-16T14:43:29.796Z,31.49
2022-08-16T14:45:58.127Z,31.49
2022-08-16T14:48:26.319Z,31.58
2022-08-16T14:50:55.569Z,31.66
2022-08-16T14:53:25.574Z,31.72
2022-08-16T14:55:54.622Z,31.70
2022-08-16T14:58:35.080Z,31.69
2022-08-16T15:01:10.077Z,31.66
2022-08-16T15:03:42.288Z,31.68
2022-08-16T15:06:13.213Z,31.75
2022-08-16T15:08:42.236Z,31.75
2022-08-16T15:11:09.415Z,31.76
2022-08-16T15:13:36.581Z,31.75
2022-08-16T15:16:04.905Z,31.87
2022-08-16T15:18:33.481Z,32.02
2022-08-16T15:21:04.713Z,32.08
2022-08-16T15:23:33.925Z,32.11
2022-08-16T15:26:03.915Z,32.06
2022-08-16T15:28:37.118Z,32.09
2022-08-16T15:31:10.522Z,32.10
2022-08-16T15:33:49.995Z,32.10
2022-08-16T15:36:21.041Z,32.11
2022-08-16T15:39:02.852Z,32.04
2022-08-16T15:41:43.129Z,31.93
2022-08-16T15:44:17.883Z,31.86
2022-08-16T15:46:57.069Z,31.82
2022-08-16T15:49:37.195Z,31.74
2022-08-16T15:52:11.167Z,31.64
2022-08-16T15:54:51.492Z,31.57
2022-08-16T15:57:27.168Z,31.45
2022-08-16T15:59:56.439Z,31.36
2022-08-16T16:02:39.486Z,31.29
2022-08-16T16:05:10.166Z,31.28
2022-08-16T16:07:40.810Z,31.20
2022-08-16T16:10:29.513Z,31.08
2022-08-16T16:13:03.727Z,31.00
2022-08-16T16:15:40.326Z,30.89
2022-08-16T16:18:09.947Z,30.77
2022-08-16T16:20:46.562Z,30.66
2022-08-16T16:23:19.428Z,30.54
2022-08-16T16:25:52.324Z,30.44
2022-08-16T16:29:06.099Z,30.36
2022-08-16T16:31:16.217Z,30.28
2022-08-16T16:33:50.458Z,30.21
2022-08-16T16:36:22.228Z,30.20
2022-08-16T16:38:52.791Z,30.30
2022-08-16T16:41:25.476Z,30.39
2022-08-16T16:43:55.997Z,30.44
2022-08-16T16:46:41.995Z,30.51
2022-08-16T16:49:13.887Z,30.70
2022-08-16T16:51:44.897Z,30.90
2022-08-16T16:54:28.005Z,31.14
2022-08-16T16:56:59.172Z,31.29
2022-08-16T16:59:28.034Z,31.30
2022-08-16T17:02:38.661Z,31.27
2022-08-16T17:04:47.206Z,31.16
2022-08-16T17:07:16.274Z,31.08
2022-08-16T17:09:46.821Z,31.01
2022-08-16T17:12:24.665Z,30.81
2022-08-16T17:14:55.961Z,30.55
2022-08-16T17:17:24.103Z,30.28
2022-08-16T17:19:51.619Z,30.07
2022-08-16T17:22:22.887Z,29.85
2022-08-16T17:24:53.228Z,29.59
2022-08-16T17:27:32.060Z,29.39
2022-08-16T17:30:15.046Z,29.15
2022-08-16T17:32:54.997Z,28.97
2022-08-16T17:35:37.743Z,28.80
2022-08-16T17:38:09.041Z,28.68
2022-08-16T17:40:50.330Z,28.60
2022-08-16T17:43:36.453Z,28.70
2022-08-16T17:46:06.676Z,28.65
2022-08-16T17:48:54.534Z,28.61
2022-08-16T17:51:27.545Z,28.50
2022-08-16T17:53:55.098Z,28.39
2022-08-16T17:56:22.356Z,28.29
2022-08-16T17:58:49.686Z,28.19
2022-08-16T18:01:27.321Z,28.09
2022-08-16T18:04:09.212Z,27.98
2022-08-16T18:06:39.491Z,27.86
2022-08-16T18:09:08.719Z,27.72
2022-08-16T18:11:42.927Z,27.62
2022-08-16T18:14:13.129Z,27.46
2022-08-16T18:16:41.273Z,27.31
2022-08-16T18:19:10.524Z,27.18
2022-08-16T18:21:56.655Z,27.07
2022-08-16T18:24:24.760Z,26.95
2022-08-16T18:26:52.974Z,26.84
2022-08-16T18:29:21.204Z,26.71
2022-08-16T18:31:50.783Z,26.61
2022-08-16T18:34:20.602Z,26.52
2022-08-16T18:36:48.436Z,26.46
2022-08-16T18:39:16.220Z,26.40
2022-08-16T18:41:46.976Z,26.33
2022-08-16T18:44:26.510Z,26.24
2022-08-16T18:46:55.869Z,26.13
2022-08-16T18:49:23.291Z,26.04
2022-08-16T18:51:50.979Z,25.94
2022-08-16T18:54:18.660Z,25.89
2022-08-16T18:56:56.184Z,25.82
2022-08-16T18:59:30.814Z,25.78
2022-08-16T19:02:04.037Z,25.71
2022-08-16T19:04:55.706Z,25.67
2022-08-16T19:07:31.013Z,25.60
2022-08-16T19:10:03.956Z,25.55
2022-08-16T19:12:38.417Z,25.51
2022-08-16T19:15:20.117Z,25.45
2022-08-16T19:17:47.799Z,25.38
2022-08-16T19:20:19.383Z,25.32
2022-08-16T19:23:05.935Z,25.21
2022-08-16T19:25:46.274Z,25.08
2022-08-16T19:28:58.512Z,25.00
2022-08-16T19:31:22.101Z,24.91
2022-08-16T19:33:55.327Z,24.85
2022-08-16T19:36:36.869Z,24.81
2022-08-16T19:39:12.232Z,24.76
2022-08-16T19:41:53.888Z,24.70
2022-08-16T19:44:22.833Z,24.59
2022-08-16T19:46:50.682Z,24.54
2022-08-16T19:49:17.849Z,24.49
2022-08-16T19:51:47.037Z,24.46
2022-08-16T19:54:15.157Z,24.45
2022-08-16T19:56:42.296Z,24.42
2022-08-16T19:59:19.283Z,24.37
2022-08-16T20:01:49.206Z,24.34
2022-08-16T20:04:16.268Z,24.32
2022-08-16T20:06:43.546Z,24.30
2022-08-16T20:09:15.195Z,24.24
2022-08-16T20:11:48.335Z,24.15
2022-08-16T20:14:24.100Z,24.10
2022-08-16T20:16:59.486Z,24.05
2022-08-16T20:19:33.431Z,23.99
2022-08-16T20:22:52.349Z,23.96
2022-08-16T20:25:28.196Z,23.92
2022-08-16T20:27:56.966Z,23.87
2022-08-16T20:30:25.714Z,23.83
2022-08-16T20:32:54.483Z,23.79
2022-08-16T20:35:25.825Z,23.75
2022-08-16T20:37:54.716Z,23.72
2022-08-16T20:40:28.823Z,23.67
2022-08-16T20:43:09.568Z,23.67
2022-08-16T20:45:38.389Z,23.59
2022-08-16T20:48:07.135Z,23.50
2022-08-16T20:50:35.829Z,23.43
2022-08-16T20:53:04.455Z,23.36
2022-08-16T20:55:35.596Z,23.31
2022-08-16T20:58:03.045Z,23.29
2022-08-16T21:00:30.991Z,23.27
2022-08-16T21:02:58.283Z,23.26
2022-08-16T21:05:31.351Z,23.23
2022-08-16T21:07:59.607Z,23.19
2022-08-16T21:10:27.212Z,23.14
2022-08-16T21:12:58.398Z,23.09
2022-08-16T21:15:28.019Z,23.06
2022-08-16T21:17:55.527Z,23.07
2022-08-16T21:20:26.076Z,23.06
2022-08-16T21:22:56.585Z,23.05
2022-08-16T21:25:24.963Z,23.08
2022-08-16T21:28:39.013Z,23.08
2022-08-16T21:30:40.412Z,23.08
2022-08-16T21:33:14.848Z,23.06
2022-08-16T21:35:46.863Z,23.04
2022-08-16T21:38:30.179Z,23.04
2022-08-16T21:40:59.603Z,23.02
2022-08-16T21:43:31.833Z,22.99
2022-08-16T21:46:01.783Z,22.95
2022-08-16T21:48:35.227Z,22.94
2022-08-16T21:51:12.171Z,22.92
2022-08-16T21:53:39.956Z,22.88
2022-08-16T21:56:12.659Z,22.87
2022-08-16T21:58:52.675Z,22.86
2022-08-16T22:01:23.085Z,22.84
2022-08-16T22:04:36.088Z,22.82
2022-08-16T22:06:41.035Z,22.79
2022-08-16T22:09:10.631Z,22.75
2022-08-16T22:11:38.394Z,22.73
2022-08-16T22:14:05.589Z,22.70
2022-08-16T22:16:37.425Z,22.67
2022-08-16T22:19:06.157Z,22.62
2022-08-16T22:21:35.274Z,22.56
2022-08-16T22:24:05.711Z,22.52
2022-08-16T22:26:42.830Z,22.45
2022-08-16T22:29:13.946Z,22.40
2022-08-16T22:31:43.857Z,22.38
2022-08-16T22:34:12.972Z,22.41
2022-08-16T22:36:40.484Z,22.39
2022-08-16T22:39:11.712Z,22.37
2022-08-16T22:41:42.169Z,22.35
2022-08-16T22:44:09.822Z,22.30
2022-08-16T22:46:37.656Z,22.25
2022-08-16T22:49:07.047Z,22.21
2022-08-16T22:51:35.757Z,22.16
2022-08-16T22:54:33.951Z,22.16
2022-08-16T22:56:50.509Z,22.14
2022-08-16T23:01:44.521Z,22.08
2022-08-16T23:04:11.626Z,22.06
2022-08-16T23:06:38.742Z,22.02
2022-08-16T23:09:05.878Z,22.01
2022-08-16T23:11:33.038Z,21.98
2022-08-16T23:14:00.297Z,21.95
2022-08-16T23:16:34.755Z,21.96
2022-08-16T23:19:10.949Z,21.93
2022-08-16T23:21:46.498Z,21.91
2022-08-16T23:24:14.124Z,21.86
2022-08-16T23:27:00.500Z,21.84
2022-08-16T23:29:45.832Z,21.79
2022-08-16T23:32:31.069Z,21.77
2022-08-16T23:35:22.229Z,21.75
2022-08-16T23:38:08.599Z,21.69
2022-08-16T23:41:14.042Z,21.66
2022-08-16T23:43:43.916Z,21.65
2022-08-16T23:46:17.082Z,21.67
2022-08-16T23:50:01.599Z,21.65
2022-08-16T23:51:34.133Z,21.63
2022-08-16T23:54:01.242Z,21.64
2022-08-16T23:56:35.464Z,21.66
2022-08-16T23:59:07.985Z,21.66
